sensor_id;sensor_type;location;lat;lon;timestamp;P1;durP1;ratioP1;P2;durP2;ratioP2
9467;SDS011;4772;52.382;9.752;2023-03-20T00:03:40;19.33;;;15.47;;
9467;SDS011;4772;52.382;9.752;2023-03-20T00:06:11;19.57;;;16.83;;
9467;SDS011;4772;52.382;9.752;2023-03-20T00:08:37;20.80;;;17.37;;
9467;SDS011;4772;52.382;9.752;2023-03-20T00:11:03;23.33;;;18.93;;
9467;SDS011;4772;52.382;9.752;2023-03-20T00:13:29;27.63;;;21.57;;
9467;SDS011;4772;52.382;9.752;2023-03-20T00:15:55;30.33;;;21.93;;
9467;SDS011;4772;52.382;9.752;2023-03-20T00:18:22;30.33;;;22.40;;
9467;SDS011;4772;52.382;9.752;2023-03-20T00:20:49;34.97;;;24.47;;
9467;SDS011;4772;52.382;9.752;2023-03-20T00:23:16;38.97;;;25.47;;
9467;SDS011;4772;52.382;9.752;2023-03-20T00:25:43;39.20;;;27.37;;
9467;SDS011;4772;52.382;9.752;2023-03-20T00:31:13;40.10;;;28.40;;
9467;SDS011;4772;52.382;9.752;2023-03-20T00:33:40;37.07;;;26.90;;
9467;SDS011;4772;52.382;9.752;2023-03-20T00:36:07;35.23;;;25.43;;
9467;SDS011;4772;52.382;9.752;2023-03-20T00:38:33;31.10;;;24.47;;
9467;SDS011;4772;52.382;9.752;2023-03-20T00:40:59;33.30;;;25.33;;
9467;SDS011;4772;52.382;9.752;2023-03-20T00:43:25;35.90;;;25.67;;
9467;SDS011;4772;52.382;9.752;2023-03-20T00:45:51;33.93;;;26.13;;
9467;SDS011;4772;52.382;9.752;2023-03-20T00:48:17;37.10;;;25.97;;
9467;SDS011;4772;52.382;9.752;2023-03-20T00:50:43;40.27;;;26.67;;
9467;SDS011;4772;52.382;9.752;2023-03-20T00:53:10;37.73;;;26.13;;
9467;SDS011;4772;52.382;9.752;2023-03-20T00:55:36;41.13;;;26.50;;
9467;SDS011;4772;52.382;9.752;2023-03-20T00:58:03;38.23;;;25.77;;
9467;SDS011;4772;52.382;9.752;2023-03-20T01:00:40;38.00;;;25.67;;
9467;SDS011;4772;52.382;9.752;2023-03-20T01:03:17;42.50;;;26.03;;
9467;SDS011;4772;52.382;9.752;2023-03-20T01:05:43;41.63;;;26.50;;
9467;SDS011;4772;52.382;9.752;2023-03-20T01:10:39;36.93;;;25.87;;
9467;SDS011;4772;52.382;9.752;2023-03-20T01:13:05;39.70;;;27.57;;
9467;SDS011;4772;52.382;9.752;2023-03-20T01:15:38;41.60;;;28.17;;
9467;SDS011;4772;52.382;9.752;2023-03-20T01:18:04;43.97;;;28.27;;
9467;SDS011;4772;52.382;9.752;2023-03-20T01:20:29;44.20;;;27.70;;
9467;SDS011;4772;52.382;9.752;2023-03-20T01:22:56;45.70;;;29.27;;
9467;SDS011;4772;52.382;9.752;2023-03-20T01:25:22;44.53;;;28.83;;
9467;SDS011;4772;52.382;9.752;2023-03-20T01:27:48;45.60;;;28.33;;
9467;SDS011;4772;52.382;9.752;2023-03-20T01:30:16;46.53;;;26.90;;
9467;SDS011;4772;52.382;9.752;2023-03-20T01:32:43;41.50;;;26.87;;
9467;SDS011;4772;52.382;9.752;2023-03-20T01:35:17;47.37;;;28.57;;
9467;SDS011;4772;52.382;9.752;2023-03-20T01:37:43;46.10;;;27.70;;
9467;SDS011;4772;52.382;9.752;2023-03-20T01:40:16;47.33;;;27.97;;
9467;SDS011;4772;52.382;9.752;2023-03-20T01:42:44;50.97;;;28.37;;
9467;SDS011;4772;52.382;9.752;2023-03-20T01:45:21;50.93;;;30.40;;
9467;SDS011;4772;52.382;9.752;2023-03-20T01:47:47;53.17;;;30.97;;
9467;SDS011;4772;52.382;9.752;2023-03-20T01:50:17;48.60;;;29.33;;
9467;SDS011;4772;52.382;9.752;2023-03-20T01:52:43;50.27;;;28.77;;
9467;SDS011;4772;52.382;9.752;2023-03-20T01:55:10;53.57;;;29.40;;
9467;SDS011;4772;52.382;9.752;2023-03-20T01:57:36;46.47;;;26.80;;
9467;SDS011;4772;52.382;9.752;2023-03-20T02:00:04;44.73;;;25.83;;
9467;SDS011;4772;52.382;9.752;2023-03-20T02:02:33;43.57;;;25.27;;
9467;SDS011;4772;52.382;9.752;2023-03-20T02:05:03;43.27;;;25.13;;
9467;SDS011;4772;52.382;9.752;2023-03-20T02:07:32;45.73;;;24.27;;
9467;SDS011;4772;52.382;9.752;2023-03-20T02:09:58;40.90;;;23.40;;
9467;SDS011;4772;52.382;9.752;2023-03-20T02:12:24;38.23;;;21.67;;
9467;SDS011;4772;52.382;9.752;2023-03-20T02:14:50;35.23;;;21.07;;
9467;SDS011;4772;52.382;9.752;2023-03-20T02:17:17;33.53;;;19.73;;
9467;SDS011;4772;52.382;9.752;2023-03-20T02:19:47;31.97;;;18.63;;
9467;SDS011;4772;52.382;9.752;2023-03-20T02:22:36;34.53;;;19.23;;
9467;SDS011;4772;52.382;9.752;2023-03-20T02:43:22;27.20;;;15.97;;
9467;SDS011;4772;52.382;9.752;2023-03-20T02:45:52;27.87;;;17.00;;
9467;SDS011;4772;52.382;9.752;2023-03-20T02:48:31;29.83;;;16.77;;
9467;SDS011;4772;52.382;9.752;2023-03-20T02:51:20;29.33;;;16.90;;
9467;SDS011;4772;52.382;9.752;2023-03-20T02:53:50;28.37;;;16.67;;
9467;SDS011;4772;52.382;9.752;2023-03-20T02:57:03;30.67;;;16.63;;
9467;SDS011;4772;52.382;9.752;2023-03-20T03:01:50;28.83;;;17.23;;
9467;SDS011;4772;52.382;9.752;2023-03-20T03:04:19;29.60;;;17.20;;
9467;SDS011;4772;52.382;9.752;2023-03-20T03:06:47;32.77;;;18.17;;
9467;SDS011;4772;52.382;9.752;2023-03-20T03:09:22;31.63;;;16.63;;
9467;SDS011;4772;52.382;9.752;2023-03-20T03:11:54;30.10;;;17.90;;
9467;SDS011;4772;52.382;9.752;2023-03-20T03:14:38;26.37;;;16.37;;
9467;SDS011;4772;52.382;9.752;2023-03-20T03:17:05;32.57;;;16.40;;
9467;SDS011;4772;52.382;9.752;2023-03-20T03:19:32;25.30;;;15.33;;
9467;SDS011;4772;52.382;9.752;2023-03-20T03:21:59;28.90;;;16.87;;
9467;SDS011;4772;52.382;9.752;2023-03-20T03:24:29;28.80;;;17.07;;
9467;SDS011;4772;52.382;9.752;2023-03-20T03:27:00;29.27;;;17.37;;
9467;SDS011;4772;52.382;9.752;2023-03-20T03:29:29;30.73;;;18.00;;
9467;SDS011;4772;52.382;9.752;2023-03-20T03:31:56;28.70;;;17.23;;
9467;SDS011;4772;52.382;9.752;2023-03-20T03:34:22;29.63;;;17.03;;
9467;SDS011;4772;52.382;9.752;2023-03-20T03:39:26;30.87;;;17.50;;
9467;SDS011;4772;52.382;9.752;2023-03-20T03:44:27;33.23;;;17.97;;
9467;SDS011;4772;52.382;9.752;2023-03-20T03:47:05;31.13;;;17.83;;
9467;SDS011;4772;52.382;9.752;2023-03-20T03:49:32;31.93;;;18.73;;
9467;SDS011;4772;52.382;9.752;2023-03-20T03:52:01;33.67;;;18.60;;
9467;SDS011;4772;52.382;9.752;2023-03-20T03:54:33;33.03;;;18.47;;
9467;SDS011;4772;52.382;9.752;2023-03-20T03:57:00;32.47;;;18.63;;
9467;SDS011;4772;52.382;9.752;2023-03-20T03:59:32;35.47;;;19.17;;
9467;SDS011;4772;52.382;9.752;2023-03-20T04:02:00;34.83;;;18.57;;
9467;SDS011;4772;52.382;9.752;2023-03-20T04:04:27;32.53;;;19.33;;
9467;SDS011;4772;52.382;9.752;2023-03-20T04:06:54;36.77;;;20.50;;
9467;SDS011;4772;52.382;9.752;2023-03-20T04:09:20;32.37;;;19.43;;
9467;SDS011;4772;52.382;9.752;2023-03-20T04:11:47;35.63;;;18.87;;
9467;SDS011;4772;52.382;9.752;2023-03-20T04:14:14;32.07;;;19.40;;
9467;SDS011;4772;52.382;9.752;2023-03-20T04:16:40;37.07;;;18.50;;
9467;SDS011;4772;52.382;9.752;2023-03-20T04:19:06;34.30;;;18.77;;
9467;SDS011;4772;52.382;9.752;2023-03-20T04:21:32;34.80;;;19.23;;
9467;SDS011;4772;52.382;9.752;2023-03-20T04:23:58;30.63;;;18.80;;
9467;SDS011;4772;52.382;9.752;2023-03-20T04:26:24;31.50;;;19.20;;
9467;SDS011;4772;52.382;9.752;2023-03-20T04:28:51;33.27;;;19.20;;
9467;SDS011;4772;52.382;9.752;2023-03-20T04:31:17;35.47;;;19.47;;
9467;SDS011;4772;52.382;9.752;2023-03-20T04:33:43;34.30;;;18.17;;
9467;SDS011;4772;52.382;9.752;2023-03-20T04:36:09;34.27;;;19.63;;
9467;SDS011;4772;52.382;9.752;2023-03-20T04:38:36;36.00;;;21.20;;
9467;SDS011;4772;52.382;9.752;2023-03-20T04:41:02;37.30;;;19.80;;
9467;SDS011;4772;52.382;9.752;2023-03-20T04:43:29;37.97;;;19.93;;
9467;SDS011;4772;52.382;9.752;2023-03-20T04:45:55;36.27;;;19.67;;
9467;SDS011;4772;52.382;9.752;2023-03-20T04:48:21;37.40;;;19.70;;
9467;SDS011;4772;52.382;9.752;2023-03-20T04:50:47;35.83;;;19.93;;
9467;SDS011;4772;52.382;9.752;2023-03-20T04:53:14;42.93;;;20.80;;
9467;SDS011;4772;52.382;9.752;2023-03-20T04:55:40;32.57;;;18.87;;
9467;SDS011;4772;52.382;9.752;2023-03-20T04:58:06;34.47;;;19.77;;
9467;SDS011;4772;52.382;9.752;2023-03-20T05:00:32;35.13;;;20.57;;
9467;SDS011;4772;52.382;9.752;2023-03-20T05:02:58;38.13;;;20.13;;
9467;SDS011;4772;52.382;9.752;2023-03-20T05:05:25;35.83;;;19.77;;
9467;SDS011;4772;52.382;9.752;2023-03-20T05:07:51;40.87;;;20.37;;
9467;SDS011;4772;52.382;9.752;2023-03-20T05:10:17;36.37;;;18.70;;
9467;SDS011;4772;52.382;9.752;2023-03-20T05:12:43;33.87;;;19.83;;
9467;SDS011;4772;52.382;9.752;2023-03-20T05:15:09;31.33;;;18.77;;
9467;SDS011;4772;52.382;9.752;2023-03-20T05:17:35;34.90;;;18.70;;
9467;SDS011;4772;52.382;9.752;2023-03-20T05:20:01;32.13;;;18.90;;
9467;SDS011;4772;52.382;9.752;2023-03-20T05:22:27;31.07;;;18.60;;
9467;SDS011;4772;52.382;9.752;2023-03-20T05:24:53;30.40;;;17.77;;
9467;SDS011;4772;52.382;9.752;2023-03-20T05:27:19;32.40;;;18.07;;
9467;SDS011;4772;52.382;9.752;2023-03-20T05:29:45;30.57;;;16.70;;
9467;SDS011;4772;52.382;9.752;2023-03-20T05:32:11;27.23;;;16.80;;
9467;SDS011;4772;52.382;9.752;2023-03-20T05:34:37;30.37;;;18.70;;
9467;SDS011;4772;52.382;9.752;2023-03-20T05:37:03;30.00;;;17.57;;
9467;SDS011;4772;52.382;9.752;2023-03-20T05:39:29;33.77;;;19.57;;
9467;SDS011;4772;52.382;9.752;2023-03-20T05:41:55;35.43;;;19.17;;
9467;SDS011;4772;52.382;9.752;2023-03-20T05:44:21;30.17;;;17.23;;
9467;SDS011;4772;52.382;9.752;2023-03-20T05:46:47;32.43;;;18.50;;
9467;SDS011;4772;52.382;9.752;2023-03-20T05:49:13;35.70;;;19.57;;
9467;SDS011;4772;52.382;9.752;2023-03-20T05:51:39;30.17;;;17.67;;
9467;SDS011;4772;52.382;9.752;2023-03-20T05:54:05;34.30;;;19.13;;
9467;SDS011;4772;52.382;9.752;2023-03-20T05:56:31;31.77;;;19.73;;
9467;SDS011;4772;52.382;9.752;2023-03-20T05:58:57;34.60;;;19.57;;
9467;SDS011;4772;52.382;9.752;2023-03-20T06:01:23;37.47;;;20.73;;
9467;SDS011;4772;52.382;9.752;2023-03-20T06:03:49;32.03;;;18.90;;
9467;SDS011;4772;52.382;9.752;2023-03-20T06:06:16;37.23;;;20.67;;
9467;SDS011;4772;52.382;9.752;2023-03-20T06:08:42;33.13;;;20.23;;
9467;SDS011;4772;52.382;9.752;2023-03-20T06:11:08;33.33;;;19.63;;
9467;SDS011;4772;52.382;9.752;2023-03-20T06:13:35;34.93;;;21.20;;
9467;SDS011;4772;52.382;9.752;2023-03-20T06:16:01;36.87;;;20.93;;
9467;SDS011;4772;52.382;9.752;2023-03-20T06:18:27;32.77;;;20.47;;
9467;SDS011;4772;52.382;9.752;2023-03-20T06:20:53;38.57;;;21.73;;
9467;SDS011;4772;52.382;9.752;2023-03-20T06:23:19;35.17;;;20.37;;
9467;SDS011;4772;52.382;9.752;2023-03-20T06:25:45;37.03;;;21.80;;
9467;SDS011;4772;52.382;9.752;2023-03-20T06:28:12;34.97;;;21.07;;
9467;SDS011;4772;52.382;9.752;2023-03-20T06:30:38;39.67;;;21.37;;
9467;SDS011;4772;52.382;9.752;2023-03-20T06:33:06;34.23;;;21.90;;
9467;SDS011;4772;52.382;9.752;2023-03-20T06:35:33;38.60;;;21.37;;
9467;SDS011;4772;52.382;9.752;2023-03-20T06:37:58;35.17;;;20.13;;
9467;SDS011;4772;52.382;9.752;2023-03-20T06:40:25;34.03;;;21.10;;
9467;SDS011;4772;52.382;9.752;2023-03-20T06:42:54;31.70;;;19.80;;
9467;SDS011;4772;52.382;9.752;2023-03-20T06:45:20;34.20;;;21.03;;
9467;SDS011;4772;52.382;9.752;2023-03-20T06:47:46;36.30;;;20.20;;
9467;SDS011;4772;52.382;9.752;2023-03-20T06:50:12;32.13;;;19.63;;
9467;SDS011;4772;52.382;9.752;2023-03-20T06:52:39;29.73;;;18.03;;
9467;SDS011;4772;52.382;9.752;2023-03-20T06:55:06;31.43;;;18.37;;
9467;SDS011;4772;52.382;9.752;2023-03-20T06:57:32;30.47;;;18.23;;
9467;SDS011;4772;52.382;9.752;2023-03-20T06:59:58;30.63;;;17.73;;
9467;SDS011;4772;52.382;9.752;2023-03-20T07:02:24;27.10;;;17.23;;
9467;SDS011;4772;52.382;9.752;2023-03-20T07:04:50;32.27;;;17.20;;
9467;SDS011;4772;52.382;9.752;2023-03-20T07:07:16;27.43;;;17.70;;
9467;SDS011;4772;52.382;9.752;2023-03-20T07:09:42;28.23;;;16.97;;
9467;SDS011;4772;52.382;9.752;2023-03-20T07:12:13;26.40;;;16.73;;
9467;SDS011;4772;52.382;9.752;2023-03-20T07:14:40;25.47;;;16.57;;
9467;SDS011;4772;52.382;9.752;2023-03-20T07:17:07;25.73;;;15.40;;
9467;SDS011;4772;52.382;9.752;2023-03-20T07:19:33;25.80;;;14.43;;
9467;SDS011;4772;52.382;9.752;2023-03-20T07:22:00;19.63;;;12.50;;
9467;SDS011;4772;52.382;9.752;2023-03-20T07:24:27;18.03;;;12.13;;
9467;SDS011;4772;52.382;9.752;2023-03-20T07:26:53;21.77;;;12.67;;
9467;SDS011;4772;52.382;9.752;2023-03-20T07:29:19;20.00;;;13.17;;
9467;SDS011;4772;52.382;9.752;2023-03-20T07:31:45;21.07;;;12.10;;
9467;SDS011;4772;52.382;9.752;2023-03-20T07:34:11;18.60;;;12.00;;
9467;SDS011;4772;52.382;9.752;2023-03-20T07:36:37;20.33;;;12.97;;
9467;SDS011;4772;52.382;9.752;2023-03-20T07:39:03;18.90;;;11.93;;
9467;SDS011;4772;52.382;9.752;2023-03-20T07:41:30;19.90;;;12.63;;
9467;SDS011;4772;52.382;9.752;2023-03-20T07:43:56;17.57;;;12.47;;
9467;SDS011;4772;52.382;9.752;2023-03-20T07:46:22;18.57;;;11.80;;
9467;SDS011;4772;52.382;9.752;2023-03-20T07:48:48;21.50;;;12.87;;
9467;SDS011;4772;52.382;9.752;2023-03-20T07:51:14;19.27;;;12.73;;
9467;SDS011;4772;52.382;9.752;2023-03-20T07:53:40;18.63;;;12.30;;
9467;SDS011;4772;52.382;9.752;2023-03-20T07:56:06;22.13;;;13.80;;
9467;SDS011;4772;52.382;9.752;2023-03-20T07:58:32;23.23;;;13.00;;
9467;SDS011;4772;52.382;9.752;2023-03-20T08:00:58;19.70;;;12.73;;
9467;SDS011;4772;52.382;9.752;2023-03-20T08:03:24;22.07;;;14.23;;
9467;SDS011;4772;52.382;9.752;2023-03-20T08:05:51;20.90;;;12.63;;
9467;SDS011;4772;52.382;9.752;2023-03-20T08:08:17;20.97;;;12.57;;
9467;SDS011;4772;52.382;9.752;2023-03-20T08:10:42;21.70;;;13.23;;
9467;SDS011;4772;52.382;9.752;2023-03-20T08:13:08;20.10;;;12.80;;
9467;SDS011;4772;52.382;9.752;2023-03-20T08:15:34;18.97;;;12.40;;
9467;SDS011;4772;52.382;9.752;2023-03-20T08:18:00;19.37;;;12.37;;
9467;SDS011;4772;52.382;9.752;2023-03-20T08:20:26;19.17;;;13.30;;
9467;SDS011;4772;52.382;9.752;2023-03-20T08:22:52;20.97;;;13.47;;
9467;SDS011;4772;52.382;9.752;2023-03-20T08:25:18;20.43;;;13.17;;
9467;SDS011;4772;52.382;9.752;2023-03-20T08:27:45;20.47;;;14.17;;
9467;SDS011;4772;52.382;9.752;2023-03-20T08:30:11;16.40;;;12.50;;
9467;SDS011;4772;52.382;9.752;2023-03-20T08:32:38;21.23;;;13.83;;
9467;SDS011;4772;52.382;9.752;2023-03-20T08:35:04;21.37;;;14.23;;
9467;SDS011;4772;52.382;9.752;2023-03-20T08:37:30;19.83;;;14.03;;
9467;SDS011;4772;52.382;9.752;2023-03-20T08:39:56;18.80;;;12.93;;
9467;SDS011;4772;52.382;9.752;2023-03-20T08:42:22;18.80;;;13.47;;
9467;SDS011;4772;52.382;9.752;2023-03-20T08:44:48;19.27;;;13.60;;
9467;SDS011;4772;52.382;9.752;2023-03-20T08:47:14;18.70;;;13.37;;
9467;SDS011;4772;52.382;9.752;2023-03-20T08:49:40;17.80;;;13.67;;
9467;SDS011;4772;52.382;9.752;2023-03-20T08:52:07;18.93;;;13.30;;
9467;SDS011;4772;52.382;9.752;2023-03-20T08:54:33;19.93;;;13.67;;
9467;SDS011;4772;52.382;9.752;2023-03-20T08:56:59;19.30;;;14.00;;
9467;SDS011;4772;52.382;9.752;2023-03-20T08:59:25;16.90;;;12.60;;
9467;SDS011;4772;52.382;9.752;2023-03-20T09:01:51;17.27;;;13.03;;
9467;SDS011;4772;52.382;9.752;2023-03-20T09:04:17;16.63;;;12.30;;
9467;SDS011;4772;52.382;9.752;2023-03-20T09:06:43;18.23;;;11.60;;
9467;SDS011;4772;52.382;9.752;2023-03-20T09:09:09;16.63;;;12.00;;
9467;SDS011;4772;52.382;9.752;2023-03-20T09:11:35;17.90;;;11.83;;
9467;SDS011;4772;52.382;9.752;2023-03-20T09:14:01;14.33;;;11.03;;
9467;SDS011;4772;52.382;9.752;2023-03-20T09:16:27;18.07;;;11.83;;
9467;SDS011;4772;52.382;9.752;2023-03-20T09:18:53;15.80;;;11.23;;
9467;SDS011;4772;52.382;9.752;2023-03-20T09:21:20;17.07;;;11.80;;
9467;SDS011;4772;52.382;9.752;2023-03-20T09:23:46;14.53;;;11.17;;
9467;SDS011;4772;52.382;9.752;2023-03-20T09:26:11;16.63;;;12.53;;
9467;SDS011;4772;52.382;9.752;2023-03-20T09:28:37;20.07;;;12.73;;
9467;SDS011;4772;52.382;9.752;2023-03-20T09:31:03;17.23;;;12.47;;
9467;SDS011;4772;52.382;9.752;2023-03-20T09:33:30;18.87;;;13.70;;
9467;SDS011;4772;52.382;9.752;2023-03-20T09:35:56;19.13;;;13.53;;
9467;SDS011;4772;52.382;9.752;2023-03-20T09:38:22;17.80;;;12.97;;
9467;SDS011;4772;52.382;9.752;2023-03-20T09:40:49;22.27;;;13.63;;
9467;SDS011;4772;52.382;9.752;2023-03-20T09:43:36;16.87;;;12.60;;
9467;SDS011;4772;52.382;9.752;2023-03-20T09:53:52;17.87;;;13.27;;
9467;SDS011;4772;52.382;9.752;2023-03-20T09:56:20;16.73;;;12.50;;
9467;SDS011;4772;52.382;9.752;2023-03-20T09:58:52;17.43;;;12.30;;
9467;SDS011;4772;52.382;9.752;2023-03-20T10:01:19;19.30;;;13.33;;
9467;SDS011;4772;52.382;9.752;2023-03-20T10:03:49;15.00;;;11.67;;
9467;SDS011;4772;52.382;9.752;2023-03-20T10:06:17;16.00;;;11.83;;
9467;SDS011;4772;52.382;9.752;2023-03-20T10:08:44;15.80;;;10.93;;
9467;SDS011;4772;52.382;9.752;2023-03-20T10:11:15;14.83;;;11.23;;
9467;SDS011;4772;52.382;9.752;2023-03-20T10:16:25;12.73;;;10.50;;
9467;SDS011;4772;52.382;9.752;2023-03-20T10:19:11;13.00;;;10.40;;
9467;SDS011;4772;52.382;9.752;2023-03-20T10:24:39;17.20;;;9.53;;
9467;SDS011;4772;52.382;9.752;2023-03-20T10:27:11;13.00;;;9.50;;
9467;SDS011;4772;52.382;9.752;2023-03-20T10:29:54;13.73;;;9.00;;
9467;SDS011;4772;52.382;9.752;2023-03-20T10:42:30;10.17;;;7.20;;
9467;SDS011;4772;52.382;9.752;2023-03-20T10:45:24;10.70;;;6.93;;
9467;SDS011;4772;52.382;9.752;2023-03-20T10:47:44;8.60;;;6.50;;
9467;SDS011;4772;52.382;9.752;2023-03-20T10:50:18;8.37;;;5.73;;
9467;SDS011;4772;52.382;9.752;2023-03-20T10:52:47;8.07;;;5.37;;
9467;SDS011;4772;52.382;9.752;2023-03-20T10:55:15;9.07;;;6.17;;
9467;SDS011;4772;52.382;9.752;2023-03-20T10:57:54;8.80;;;5.70;;
9467;SDS011;4772;52.382;9.752;2023-03-20T11:00:23;11.60;;;5.67;;
9467;SDS011;4772;52.382;9.752;2023-03-20T11:02:50;9.00;;;5.40;;
9467;SDS011;4772;52.382;9.752;2023-03-20T11:05:30;10.27;;;5.63;;
9467;SDS011;4772;52.382;9.752;2023-03-20T11:08:01;8.10;;;5.40;;
9467;SDS011;4772;52.382;9.752;2023-03-20T11:10:27;7.03;;;6.17;;
9467;SDS011;4772;52.382;9.752;2023-03-20T11:12:56;7.30;;;5.17;;
9467;SDS011;4772;52.382;9.752;2023-03-20T11:17:55;11.13;;;5.37;;
9467;SDS011;4772;52.382;9.752;2023-03-20T11:20:22;6.20;;;5.30;;
9467;SDS011;4772;52.382;9.752;2023-03-20T11:22:48;8.37;;;5.13;;
9467;SDS011;4772;52.382;9.752;2023-03-20T11:25:27;7.50;;;5.10;;
9467;SDS011;4772;52.382;9.752;2023-03-20T11:27:54;7.37;;;4.77;;
9467;SDS011;4772;52.382;9.752;2023-03-20T11:30:21;6.93;;;4.80;;
9467;SDS011;4772;52.382;9.752;2023-03-20T11:32:47;6.50;;;4.93;;
9467;SDS011;4772;52.382;9.752;2023-03-20T11:37:48;8.80;;;5.83;;
9467;SDS011;4772;52.382;9.752;2023-03-20T11:40:23;7.27;;;5.93;;
9467;SDS011;4772;52.382;9.752;2023-03-20T11:42:54;6.73;;;5.57;;
9467;SDS011;4772;52.382;9.752;2023-03-20T11:45:21;5.73;;;5.13;;
9467;SDS011;4772;52.382;9.752;2023-03-20T11:47:49;7.57;;;5.53;;
9467;SDS011;4772;52.382;9.752;2023-03-20T11:50:32;6.43;;;4.77;;
9467;SDS011;4772;52.382;9.752;2023-03-20T11:53:02;7.37;;;4.93;;
9467;SDS011;4772;52.382;9.752;2023-03-20T11:55:30;7.43;;;4.93;;
9467;SDS011;4772;52.382;9.752;2023-03-20T11:57:57;6.80;;;4.80;;
9467;SDS011;4772;52.382;9.752;2023-03-20T12:00:24;6.60;;;5.17;;
9467;SDS011;4772;52.382;9.752;2023-03-20T12:02:51;7.73;;;5.03;;
9467;SDS011;4772;52.382;9.752;2023-03-20T12:07:53;10.17;;;4.80;;
9467;SDS011;4772;52.382;9.752;2023-03-20T12:10:22;7.63;;;4.30;;
9467;SDS011;4772;52.382;9.752;2023-03-20T12:12:56;7.67;;;4.43;;
9467;SDS011;4772;52.382;9.752;2023-03-20T12:15:28;6.80;;;4.70;;
9467;SDS011;4772;52.382;9.752;2023-03-20T12:20:40;6.83;;;4.50;;
9467;SDS011;4772;52.382;9.752;2023-03-20T12:28:18;8.60;;;5.10;;
9467;SDS011;4772;52.382;9.752;2023-03-20T12:30:55;9.03;;;5.53;;
9467;SDS011;4772;52.382;9.752;2023-03-20T12:35:48;9.40;;;4.87;;
9467;SDS011;4772;52.382;9.752;2023-03-20T12:40:48;8.50;;;4.90;;
9467;SDS011;4772;52.382;9.752;2023-03-20T12:43:25;9.37;;;4.70;;
9467;SDS011;4772;52.382;9.752;2023-03-20T12:51:24;8.63;;;5.50;;
9467;SDS011;4772;52.382;9.752;2023-03-20T12:53:59;8.27;;;5.60;;
9467;SDS011;4772;52.382;9.752;2023-03-20T13:04:59;7.97;;;5.10;;
9467;SDS011;4772;52.382;9.752;2023-03-20T13:07:00;7.40;;;4.53;;
9467;SDS011;4772;52.382;9.752;2023-03-20T13:12:00;5.43;;;3.97;;
9467;SDS011;4772;52.382;9.752;2023-03-20T13:14:43;8.47;;;4.53;;
9467;SDS011;4772;52.382;9.752;2023-03-20T13:19:41;6.87;;;4.20;;
9467;SDS011;4772;52.382;9.752;2023-03-20T13:24:54;7.17;;;4.20;;
9467;SDS011;4772;52.382;9.752;2023-03-20T13:27:30;4.83;;;4.17;;
9467;SDS011;4772;52.382;9.752;2023-03-20T13:32:34;8.57;;;4.23;;
9467;SDS011;4772;52.382;9.752;2023-03-20T13:37:48;8.53;;;4.27;;
9467;SDS011;4772;52.382;9.752;2023-03-20T13:40:21;7.27;;;4.13;;
9467;SDS011;4772;52.382;9.752;2023-03-20T13:42:50;7.80;;;4.43;;
9467;SDS011;4772;52.382;9.752;2023-03-20T13:45:23;8.73;;;4.57;;
9467;SDS011;4772;52.382;9.752;2023-03-20T13:47:51;5.70;;;4.53;;
9467;SDS011;4772;52.382;9.752;2023-03-20T13:50:36;9.60;;;4.90;;
9467;SDS011;4772;52.382;9.752;2023-03-20T13:53:07;6.07;;;5.20;;
9467;SDS011;4772;52.382;9.752;2023-03-20T13:55:42;8.60;;;4.77;;
9467;SDS011;4772;52.382;9.752;2023-03-20T13:58:21;8.43;;;4.60;;
9467;SDS011;4772;52.382;9.752;2023-03-20T14:03:34;7.70;;;4.30;;
9467;SDS011;4772;52.382;9.752;2023-03-20T14:06:14;6.00;;;4.50;;
9467;SDS011;4772;52.382;9.752;2023-03-20T14:08:42;8.17;;;4.40;;
9467;SDS011;4772;52.382;9.752;2023-03-20T14:16:31;8.43;;;5.60;;
9467;SDS011;4772;52.382;9.752;2023-03-20T14:19:05;10.97;;;5.47;;
9467;SDS011;4772;52.382;9.752;2023-03-20T14:21:32;8.57;;;5.73;;
9467;SDS011;4772;52.382;9.752;2023-03-20T14:24:16;9.60;;;5.80;;
9467;SDS011;4772;52.382;9.752;2023-03-20T14:26:47;7.23;;;5.73;;
9467;SDS011;4772;52.382;9.752;2023-03-20T14:31:39;9.17;;;6.07;;
9467;SDS011;4772;52.382;9.752;2023-03-20T14:34:13;9.27;;;5.87;;
9467;SDS011;4772;52.382;9.752;2023-03-20T14:36:59;7.97;;;5.33;;
9467;SDS011;4772;52.382;9.752;2023-03-20T14:41:59;7.37;;;5.10;;
9467;SDS011;4772;52.382;9.752;2023-03-20T14:44:49;6.27;;;4.87;;
9467;SDS011;4772;52.382;9.752;2023-03-20T14:47:21;7.57;;;4.50;;
9467;SDS011;4772;52.382;9.752;2023-03-20T14:49:50;5.00;;;4.27;;
9467;SDS011;4772;52.382;9.752;2023-03-20T14:54:43;6.90;;;4.33;;
9467;SDS011;4772;52.382;9.752;2023-03-20T14:57:17;6.43;;;4.50;;
9467;SDS011;4772;52.382;9.752;2023-03-20T14:59:47;5.93;;;4.37;;
9467;SDS011;4772;52.382;9.752;2023-03-20T15:02:22;8.27;;;4.30;;
9467;SDS011;4772;52.382;9.752;2023-03-20T15:04:50;7.00;;;4.83;;
9467;SDS011;4772;52.382;9.752;2023-03-20T15:07:16;5.70;;;4.20;;
9467;SDS011;4772;52.382;9.752;2023-03-20T15:09:46;6.33;;;4.60;;
9467;SDS011;4772;52.382;9.752;2023-03-20T15:12:15;7.50;;;4.67;;
9467;SDS011;4772;52.382;9.752;2023-03-20T15:14:46;9.73;;;4.63;;
9467;SDS011;4772;52.382;9.752;2023-03-20T15:17:15;6.63;;;4.13;;
9467;SDS011;4772;52.382;9.752;2023-03-20T15:19:42;7.03;;;4.13;;
9467;SDS011;4772;52.382;9.752;2023-03-20T15:22:18;6.53;;;3.97;;
9467;SDS011;4772;52.382;9.752;2023-03-20T15:24:51;9.00;;;4.13;;
9467;SDS011;4772;52.382;9.752;2023-03-20T15:27:17;5.33;;;3.67;;
9467;SDS011;4772;52.382;9.752;2023-03-20T15:29:45;7.10;;;3.80;;
9467;SDS011;4772;52.382;9.752;2023-03-20T15:32:13;4.40;;;3.43;;
9467;SDS011;4772;52.382;9.752;2023-03-20T15:34:40;7.97;;;3.50;;
9467;SDS011;4772;52.382;9.752;2023-03-20T15:37:06;7.20;;;3.93;;
9467;SDS011;4772;52.382;9.752;2023-03-20T15:39:46;5.87;;;3.53;;
9467;SDS011;4772;52.382;9.752;2023-03-20T15:42:14;7.30;;;3.57;;
9467;SDS011;4772;52.382;9.752;2023-03-20T15:44:41;8.73;;;3.70;;
9467;SDS011;4772;52.382;9.752;2023-03-20T15:49:35;6.30;;;3.20;;
9467;SDS011;4772;52.382;9.752;2023-03-20T15:52:04;8.77;;;3.85;;
9467;SDS011;4772;52.382;9.752;2023-03-20T15:54:31;7.67;;;3.60;;
9467;SDS011;4772;52.382;9.752;2023-03-20T15:56:58;5.57;;;3.20;;
9467;SDS011;4772;52.382;9.752;2023-03-20T15:59:25;8.27;;;4.97;;
9467;SDS011;4772;52.382;9.752;2023-03-20T16:01:53;7.53;;;3.87;;
9467;SDS011;4772;52.382;9.752;2023-03-20T16:04:20;7.07;;;3.27;;
9467;SDS011;4772;52.382;9.752;2023-03-20T16:06:57;6.23;;;3.27;;
9467;SDS011;4772;52.382;9.752;2023-03-20T16:09:24;4.77;;;3.30;;
9467;SDS011;4772;52.382;9.752;2023-03-20T16:12:00;6.60;;;3.57;;
9467;SDS011;4772;52.382;9.752;2023-03-20T16:14:28;6.93;;;3.67;;
9467;SDS011;4772;52.382;9.752;2023-03-20T16:16:55;8.80;;;4.67;;
9467;SDS011;4772;52.382;9.752;2023-03-20T16:19:22;6.27;;;4.70;;
9467;SDS011;4772;52.382;9.752;2023-03-20T16:21:51;6.80;;;5.03;;
9467;SDS011;4772;52.382;9.752;2023-03-20T16:24:19;6.27;;;5.07;;
9467;SDS011;4772;52.382;9.752;2023-03-20T16:26:47;9.23;;;5.73;;
9467;SDS011;4772;52.382;9.752;2023-03-20T16:29:14;10.80;;;6.10;;
9467;SDS011;4772;52.382;9.752;2023-03-20T16:34:26;10.50;;;5.93;;
9467;SDS011;4772;52.382;9.752;2023-03-20T16:36:57;8.43;;;5.77;;
9467;SDS011;4772;52.382;9.752;2023-03-20T16:39:25;13.10;;;6.07;;
9467;SDS011;4772;52.382;9.752;2023-03-20T16:42:07;8.53;;;6.00;;
9467;SDS011;4772;52.382;9.752;2023-03-20T16:44:35;8.77;;;6.53;;
9467;SDS011;4772;52.382;9.752;2023-03-20T16:47:14;7.93;;;5.93;;
9467;SDS011;4772;52.382;9.752;2023-03-20T16:49:48;10.83;;;5.83;;
9467;SDS011;4772;52.382;9.752;2023-03-20T16:52:15;9.37;;;5.83;;
9467;SDS011;4772;52.382;9.752;2023-03-20T16:54:42;10.57;;;8.93;;
9467;SDS011;4772;52.382;9.752;2023-03-20T16:57:13;7.20;;;6.43;;
9467;SDS011;4772;52.382;9.752;2023-03-20T16:59:39;7.33;;;5.80;;
9467;SDS011;4772;52.382;9.752;2023-03-20T17:02:20;7.83;;;5.60;;
9467;SDS011;4772;52.382;9.752;2023-03-20T17:04:47;11.23;;;5.80;;
9467;SDS011;4772;52.382;9.752;2023-03-20T17:07:17;8.80;;;5.63;;
9467;SDS011;4772;52.382;9.752;2023-03-20T17:09:55;7.43;;;5.40;;
9467;SDS011;4772;52.382;9.752;2023-03-20T17:12:23;7.30;;;5.33;;